Terminal Aerodrome Forecast
Issued by NWS New Orleans/Baton Rouge, LA

Home | Current Version | Previous Version | Text Only | Print | Product List | Glossary On
Versions: 1 2 3 4 5 6 7 8 9 10 11 12 13 14
847
FTUS44 KLIX 041739
TAFBTR
TAF
KBTR 041739Z 0418/0518 29008KT 3SM -RA BR OVC004
      TEMPO 0418/0421 1SM RA BR OVC002
     FM042100 34007KT 5SM BR OVC010
      TEMPO 0421/0501 2SM -RA BR OVC003
     FM050300 02005KT 5SM SHRA OVC015
     FM050600 04006KT 3SM SHRA OVC008=

USA.gov is the U.S. government's official web portal to all federal, state and local government web resources and services.